Pagrindinis puslapis
METAR-TAF:

METAR-TAF

Oro uostai :

Dijarbakyras, Turkija

platuma: 37-53N, ilguma: 040-11E, Aukštis: 686 m

Dabartinis oras

Ataskaita buvo paskelbta 22 minutes, ne 03:20 UTC
Vėjas 6 kt iš Vakarų
Temperatūra 22°C
Drėgmė 50%
Slėgis 1009 hPa
Matomumas 10 km arba daugiau
nėra debesų žemiau 1500 m ir nėra kamuolinių lietaus debesų

METAR: LTCC 160320Z 27006KT CAVOK 22/11 Q1009 NOSIG RMK RWY16 26007KT SKC

Laikas: 06:42 (03:42 UTC)

Prognozė

Ataskaita buvo paskelbta 5 valandos ir 2 minutes, ne 22:40 UTC
Prognozė galioja nuo 16 metu 00 UTC su 16 metu 24 UTC
Vėjas 2 kt nuo kintamojo kryptimis
Matomumas 10 km arba daugiau
nėra debesų žemiau 1500 m ir nėra kamuolinių lietaus debesų
Laikinai
nuo 16 metu 12 UTC su 16 metu 16 UTC
Vėjas 12 kt iš Pietų/Pietvakarių

TAF: LTCC 152240Z 1600/1624 VRB02KT CAVOK TEMPO 1612/1616 21012KT

Orai ataskaitas ir orų prognozės (METAR, TAF).

turimą stotys yra geltonos ir raudonos taškus žemėlapyje.

Perkelti pele per norėdami pamatyti stoties vardą.

Tada spustelėkite, norėdami matyti oro stebėjimo ir prognozės.

Norėdami pakeisti žemėlapį: spustelėkite ant žalios mygtukų su juodo kryžiaus žemyn,; žalią mygtuką su brūkšneliu, jei norite nutolinti; arba žalių rodyklių gretimoms žemėlapius.


METAR-TAF: